Time;durP1;ratioP1;P1;durP2;ratioP2;P2;SDS_P1;SDS_P2;PMS_P1;PMS_P2;Temp;Humidity;BMP_temperature;BMP_pressure;BME280_temperature;BME280_humidity;BME280_pressure;Samples;Min_cycle;Max_cycle;Signal;HPM_P1;HPM_P2
2021/08/19 00:01:49;;;;;;;0.60;0.60;;;17.90;99.90;;;;;;5056209;28;20173;-64
2021/08/19 00:04:15;;;;;;;1.00;0.80;;;17.90;99.90;;;;;;5054899;28;20652;-64
2021/08/19 00:06:41;;;;;;;0.60;0.60;;;17.90;99.90;;;;;;5054734;28;20401;-65
2021/08/19 00:09:07;;;;;;;0.70;0.67;;;17.80;99.90;;;;;;5054987;28;20407;-64
2021/08/19 00:11:33;;;;;;;0.77;0.70;;;17.80;99.90;;;;;;5054993;28;20642;-65
2021/08/19 00:13:59;;;;;;;0.83;0.83;;;17.80;99.90;;;;;;5054844;28;20737;-63
2021/08/19 00:16:24;;;;;;;0.90;0.87;;;17.80;99.90;;;;;;5054767;28;20512;-65
2021/08/19 00:18:50;;;;;;;0.77;0.77;;;17.80;99.90;;;;;;5054302;28;20298;-63
2021/08/19 00:21:16;;;;;;;0.70;0.70;;;17.80;99.90;;;;;;5054844;28;20564;-66
2021/08/19 00:23:41;;;;;;;1.03;0.97;;;17.80;99.90;;;;;;5054837;28;20495;-64
2021/08/19 00:26:07;;;;;;;0.60;0.60;;;17.80;99.90;;;;;;5053298;28;20249;-66
2021/08/19 00:28:33;;;;;;;0.50;0.50;;;17.80;99.90;;;;;;5057621;28;20208;-63
2021/08/19 00:30:59;;;;;;;0.50;0.50;;;17.80;99.90;;;;;;5074726;28;20209;-64
2021/08/19 00:33:25;;;;;;;0.70;0.70;;;17.80;99.90;;;;;;5074784;28;20185;-65
2021/08/19 00:35:50;;;;;;;0.70;0.70;;;17.80;99.90;;;;;;5074325;28;20460;-64
2021/08/19 00:38:16;;;;;;;0.80;0.80;;;17.80;99.90;;;;;;5054758;28;20204;-66
2021/08/19 00:40:42;;;;;;;0.70;0.70;;;17.70;99.90;;;;;;5054355;28;20174;-63
2021/08/19 00:43:08;;;;;;;0.70;0.63;;;17.70;99.90;;;;;;5054372;28;20524;-67
2021/08/19 00:45:36;;;;;;;0.70;0.70;;;17.70;99.90;;;;;;5054352;28;20194;-63
2021/08/19 00:48:03;;;;;;;0.90;0.83;;;17.70;99.90;;;;;;5053663;28;20401;-65
2021/08/19 00:50:28;;;;;;;0.73;0.50;;;17.70;99.90;;;;;;5054167;28;20453;-61
2021/08/19 00:52:55;;;;;;;0.70;0.70;;;17.70;99.90;;;;;;5071393;28;20418;-65
2021/08/19 00:55:21;;;;;;;0.70;0.70;;;17.80;99.90;;;;;;5074107;28;20178;-63
2021/08/19 00:57:47;;;;;;;0.67;0.67;;;17.80;99.90;;;;;;5073532;28;20894;-64
2021/08/19 01:00:14;;;;;;;0.57;0.57;;;17.80;99.90;;;;;;5073929;28;20208;-63
2021/08/19 01:02:45;;;;;;;0.80;0.80;;;17.80;99.90;;;;;;5073937;28;20415;-65
2021/08/19 01:05:16;;;;;;;0.60;0.60;;;17.80;99.90;;;;;;5069019;28;20417;-63
2021/08/19 01:07:43;;;;;;;0.47;0.47;;;17.70;99.90;;;;;;5053619;28;20391;-65
2021/08/19 01:10:10;;;;;;;0.67;0.60;;;17.80;99.90;;;;;;5053886;28;20792;-62
2021/08/19 01:12:36;;;;;;;0.70;0.70;;;17.80;99.90;;;;;;5054098;28;20574;-65
2021/08/19 01:15:02;;;;;;;0.60;0.60;;;17.80;99.90;;;;;;5053725;28;20510;-64
2021/08/19 01:17:30;;;;;;;0.80;0.70;;;17.80;99.90;;;;;;5053490;28;20599;-63
2021/08/19 01:19:57;;;;;;;0.60;0.60;;;17.80;99.90;;;;;;5057687;28;20809;-66
2021/08/19 01:22:26;;;;;;;0.70;0.70;;;17.80;99.90;;;;;;5073749;28;20418;-62
2021/08/19 01:24:52;;;;;;;0.80;0.80;;;17.70;99.90;;;;;;5073571;28;20415;-62
2021/08/19 01:27:19;;;;;;;1.07;0.97;;;17.70;99.90;;;;;;5073118;28;20466;-62
2021/08/19 01:29:47;;;;;;;0.97;0.70;;;17.70;99.90;;;;;;5073576;28;20458;-64
2021/08/19 01:32:13;;;;;;;0.80;0.80;;;17.70;99.90;;;;;;5073292;28;20441;-63
2021/08/19 01:34:40;;;;;;;0.60;0.60;;;17.70;99.90;;;;;;5069114;28;20428;-66
2021/08/19 01:37:07;;;;;;;0.73;0.73;;;17.70;99.90;;;;;;5053094;28;20467;-63
2021/08/19 01:39:33;;;;;;;0.70;0.70;;;17.70;99.90;;;;;;5053182;28;20536;-65
2021/08/19 01:41:59;;;;;;;0.50;0.50;;;17.70;99.90;;;;;;5052283;28;20412;-62
2021/08/19 01:44:25;;;;;;;0.73;0.73;;;17.70;99.90;;;;;;5053504;28;20776;-65
2021/08/19 01:46:58;;;;;;;0.83;0.83;;;17.70;99.90;;;;;;5053002;28;20701;-66
2021/08/19 01:49:26;;;;;;;0.80;0.80;;;17.70;99.90;;;;;;5056233;28;20192;-66
2021/08/19 01:51:52;;;;;;;1.20;1.13;;;17.70;99.90;;;;;;5073148;28;20919;-64
2021/08/19 01:54:18;;;;;;;1.03;0.93;;;17.70;99.90;;;;;;5071653;28;20447;-64
2021/08/19 01:56:43;;;;;;;1.00;1.00;;;17.70;99.90;;;;;;5072865;28;20404;-66
2021/08/19 01:59:10;;;;;;;0.80;0.80;;;17.70;99.90;;;;;;5073042;28;20202;-65
2021/08/19 02:01:35;;;;;;;0.77;0.77;;;17.60;99.90;;;;;;5072828;28;20338;-65
2021/08/19 02:04:02;;;;;;;0.80;0.80;;;17.70;99.90;;;;;;5073036;28;20444;-62
2021/08/19 02:06:28;;;;;;;0.90;0.90;;;17.60;99.90;;;;;;5073143;28;20268;-67
2021/08/19 02:08:54;;;;;;;0.90;0.80;;;17.70;99.90;;;;;;5072638;28;20510;-63
2021/08/19 02:11:20;;;;;;;0.80;0.80;;;17.60;99.90;;;;;;5073161;28;20182;-64
2021/08/19 02:13:46;;;;;;;1.10;1.00;;;17.70;99.90;;;;;;5073094;28;20177;-63
2021/08/19 02:16:12;;;;;;;0.90;0.73;;;17.70;99.90;;;;;;5063746;28;20465;-64
2021/08/19 02:18:38;;;;;;;2.10;0.93;;;17.60;99.90;;;;;;5052335;28;20459;-63
2021/08/19 02:21:04;;;;;;;1.53;0.87;;;17.60;99.90;;;;;;5053441;28;20710;-66
2021/08/19 02:23:29;;;;;;;0.80;0.80;;;17.60;99.90;;;;;;5052996;28;20169;-64
2021/08/19 02:25:55;;;;;;;1.27;1.23;;;17.60;99.90;;;;;;5052915;28;20167;-63
2021/08/19 02:28:20;;;;;;;0.93;0.93;;;17.60;99.90;;;;;;5051121;28;20681;-65
2021/08/19 02:30:46;;;;;;;1.50;1.40;;;17.50;99.90;;;;;;5059884;28;20699;-63
2021/08/19 02:33:12;;;;;;;0.90;0.90;;;17.50;99.90;;;;;;5054390;28;20179;-65
2021/08/19 02:35:37;;;;;;;0.70;0.70;;;17.60;99.90;;;;;;5052927;28;20300;-64
2021/08/19 02:38:07;;;;;;;1.20;1.10;;;17.50;99.90;;;;;;5052544;28;20178;-64
2021/08/19 02:40:35;;;;;;;1.43;1.00;;;17.50;99.90;;;;;;5052729;28;20642;-64
2021/08/19 02:43:01;;;;;;;1.13;1.00;;;17.50;99.90;;;;;;5052581;28;20381;-65
2021/08/19 02:45:27;;;;;;;1.03;1.03;;;17.50;99.90;;;;;;5059146;28;20416;-63
2021/08/19 02:47:52;;;;;;;1.13;1.00;;;17.50;99.90;;;;;;5072383;28;20407;-64
2021/08/19 02:50:18;;;;;;;1.10;1.00;;;17.50;99.90;;;;;;5072772;28;20176;-63
2021/08/19 02:52:44;;;;;;;1.00;1.00;;;17.50;99.90;;;;;;5072829;28;20192;-66
2021/08/19 02:55:10;;;;;;;4.53;1.33;;;17.40;99.90;;;;;;5072591;28;20855;-63
2021/08/19 02:57:36;;;;;;;1.10;1.10;;;17.40;99.90;;;;;;5072253;28;20188;-65
2021/08/19 03:00:04;;;;;;;1.10;1.00;;;17.40;99.90;;;;;;5069044;28;20543;-64
2021/08/19 03:02:29;;;;;;;1.40;0.90;;;17.40;99.90;;;;;;5056033;28;20656;-62
2021/08/19 03:04:55;;;;;;;1.00;0.97;;;17.40;99.90;;;;;;5056319;28;20434;-65
2021/08/19 03:07:21;;;;;;;0.97;0.97;;;17.40;99.90;;;;;;5055876;28;20270;-64
2021/08/19 03:09:46;;;;;;;1.10;1.10;;;17.40;99.90;;;;;;5056106;28;20198;-62
2021/08/19 03:12:12;;;;;;;1.30;1.20;;;17.40;99.90;;;;;;5054889;28;20624;-63
2021/08/19 03:14:37;;;;;;;2.40;1.20;;;17.40;99.90;;;;;;5055788;28;20192;-67
2021/08/19 03:17:04;;;;;;;1.47;1.37;;;17.50;99.90;;;;;;5062060;28;20178;-62
2021/08/19 03:19:30;;;;;;;1.63;0.93;;;17.40;99.90;;;;;;5075692;28;20209;-66
2021/08/19 03:21:55;;;;;;;1.53;1.43;;;17.40;99.90;;;;;;5076078;28;20472;-64
2021/08/19 03:24:21;;;;;;;1.27;1.17;;;17.50;99.90;;;;;;5075900;28;20170;-63
2021/08/19 03:26:46;;;;;;;0.97;0.77;;;17.40;99.90;;;;;;5075594;28;20539;-63
2021/08/19 03:29:12;;;;;;;1.13;1.00;;;17.40;99.90;;;;;;5072587;28;20189;-63
2021/08/19 03:31:38;;;;;;;1.40;1.30;;;17.40;99.90;;;;;;5055453;28;20677;-67
2021/08/19 03:34:03;;;;;;;0.90;0.90;;;17.40;99.90;;;;;;5055594;28;20173;-62
2021/08/19 03:36:29;;;;;;;1.00;1.00;;;17.40;99.90;;;;;;5055393;28;20213;-66
2021/08/19 03:38:55;;;;;;;1.80;1.70;;;17.40;99.90;;;;;;5055333;28;20222;-62
2021/08/19 03:41:21;;;;;;;0.80;0.80;;;17.40;99.90;;;;;;5055622;28;20166;-65
2021/08/19 03:43:47;;;;;;;1.20;1.20;;;17.40;99.90;;;;;;5056515;28;20264;-63
2021/08/19 03:46:14;;;;;;;1.20;1.10;;;17.40;99.90;;;;;;5075300;28;20483;-64
2021/08/19 03:48:41;;;;;;;1.27;1.17;;;17.40;99.90;;;;;;5074974;28;20434;-63
2021/08/19 03:51:09;;;;;;;0.97;0.97;;;17.40;99.90;;;;;;5075298;28;20424;-65
2021/08/19 03:53:36;;;;;;;1.13;1.00;;;17.30;99.90;;;;;;5075542;28;20443;-63
2021/08/19 03:56:03;;;;;;;1.43;1.33;;;17.40;99.90;;;;;;5075347;28;20415;-65
2021/08/19 03:58:28;;;;;;;1.27;1.17;;;17.30;99.90;;;;;;5074302;28;20554;-64
2021/08/19 04:00:54;;;;;;;1.90;1.10;;;17.40;99.90;;;;;;5075170;28;20484;-65
2021/08/19 04:03:19;;;;;;;1.40;1.30;;;17.40;99.90;;;;;;5075152;28;20587;-66
2021/08/19 04:05:45;;;;;;;1.10;1.10;;;17.30;99.90;;;;;;5075207;28;20207;-63
2021/08/19 04:08:11;;;;;;;1.20;1.10;;;17.30;99.90;;;;;;5074531;28;20250;-65
2021/08/19 04:10:36;;;;;;;1.10;1.10;;;17.40;99.90;;;;;;5074314;28;20173;-63
2021/08/19 04:13:02;;;;;;;1.43;1.33;;;17.40;99.90;;;;;;5067478;28;20166;-65
2021/08/19 04:15:27;;;;;;;1.17;1.07;;;17.40;99.90;;;;;;5054051;28;20170;-64
2021/08/19 04:17:54;;;;;;;1.43;1.37;;;17.40;99.90;;;;;;5054388;28;20166;-67
2021/08/19 04:20:20;;;;;;;4.97;1.63;;;17.40;99.90;;;;;;5054654;28;20285;-62
2021/08/19 04:22:46;;;;;;;1.70;1.57;;;17.50;99.90;;;;;;5054803;28;20400;-63
2021/08/19 04:25:12;;;;;;;2.17;1.30;;;17.40;99.90;;;;;;5053539;28;20408;-63
2021/08/19 04:27:38;;;;;;;1.50;1.40;;;17.40;99.90;;;;;;5054490;28;20178;-64
2021/08/19 04:30:08;;;;;;;1.00;1.00;;;17.30;99.90;;;;;;5054435;28;20428;-64
2021/08/19 04:32:34;;;;;;;1.70;1.57;;;17.30;99.90;;;;;;5054337;28;20427;-64
2021/08/19 04:34:59;;;;;;;0.97;0.97;;;17.20;99.90;;;;;;5054587;28;20481;-64
2021/08/19 04:37:25;;;;;;;1.70;1.47;;;17.20;99.90;;;;;;5070739;28;20577;-63
2021/08/19 04:39:51;;;;;;;1.37;1.20;;;17.20;99.90;;;;;;5073995;28;20212;-64
2021/08/19 04:42:17;;;;;;;1.60;1.37;;;17.20;99.90;;;;;;5063405;28;20186;-61
2021/08/19 04:44:42;;;;;;;1.50;1.40;;;17.30;99.90;;;;;;5054468;28;20292;-64
2021/08/19 04:47:08;;;;;;;1.40;1.30;;;17.20;99.90;;;;;;5053877;28;20243;-63
2021/08/19 04:49:34;;;;;;;1.33;1.23;;;17.20;99.90;;;;;;5054199;28;20282;-64
2021/08/19 04:51:59;;;;;;;1.10;1.10;;;17.20;99.90;;;;;;5054295;28;20183;-63
2021/08/19 04:54:25;;;;;;;1.57;1.30;;;17.20;99.90;;;;;;5053921;28;20170;-63
2021/08/19 04:56:50;;;;;;;1.07;0.97;;;17.20;99.90;;;;;;5053829;28;20265;-63
2021/08/19 04:59:16;;;;;;;1.90;1.43;;;17.20;99.90;;;;;;5053788;28;20256;-65
2021/08/19 05:01:42;;;;;;;1.47;1.37;;;17.30;99.90;;;;;;5053977;28;20173;-64
2021/08/19 05:04:08;;;;;;;1.60;1.50;;;17.20;99.90;;;;;;5054079;28;20648;-66
2021/08/19 05:06:34;;;;;;;1.37;1.13;;;17.20;99.90;;;;;;5053711;28;20230;-63
2021/08/19 05:09:01;;;;;;;1.03;1.03;;;17.10;99.90;;;;;;5053798;28;20237;-63
2021/08/19 05:11:27;;;;;;;1.50;1.40;;;17.10;99.90;;;;;;5068523;28;20424;-64
2021/08/19 05:13:57;;;;;;;2.17;2.00;;;17.20;99.90;;;;;;5073784;28;20755;-63
2021/08/19 05:16:22;;;;;;;1.20;1.10;;;17.20;99.90;;;;;;5073668;28;20505;-64
2021/08/19 05:18:48;;;;;;;1.90;1.30;;;17.20;99.90;;;;;;5073198;28;20558;-65
2021/08/19 05:21:14;;;;;;;1.20;1.10;;;17.20;99.90;;;;;;5073868;28;20193;-64
2021/08/19 05:23:40;;;;;;;1.10;1.00;;;17.20;99.90;;;;;;5072806;28;20208;-62
2021/08/19 05:26:06;;;;;;;1.20;1.10;;;17.30;99.90;;;;;;5059155;28;20556;-64
2021/08/19 05:28:32;;;;;;;2.20;1.27;;;17.30;99.90;;;;;;5053285;28;20896;-62
2021/08/19 05:30:58;;;;;;;0.83;0.83;;;17.40;99.90;;;;;;5053284;28;20536;-63
2021/08/19 05:33:23;;;;;;;1.00;1.00;;;17.40;99.90;;;;;;5053487;28;20437;-64
2021/08/19 05:35:49;;;;;;;1.10;1.10;;;17.50;99.90;;;;;;5053522;28;20537;-63
2021/08/19 05:38:15;;;;;;;1.20;1.07;;;17.50;99.90;;;;;;5052729;28;20208;-66
2021/08/19 05:40:40;;;;;;;1.27;1.10;;;17.50;99.90;;;;;;5065800;28;20187;-64
2021/08/19 05:43:06;;;;;;;1.20;1.20;;;17.50;99.90;;;;;;5073462;28;20200;-64
2021/08/19 05:45:35;;;;;;;1.40;1.30;;;17.50;99.90;;;;;;5073300;28;20252;-63
2021/08/19 05:48:01;;;;;;;1.20;1.20;;;17.60;99.90;;;;;;5067564;28;20254;-63
2021/08/19 05:50:28;;;;;;;0.80;0.80;;;17.60;99.90;;;;;;5070730;28;20951;-64
2021/08/19 05:52:53;;;;;;;1.00;0.90;;;17.60;99.90;;;;;;5072499;28;20945;-66
2021/08/19 05:55:19;;;;;;;1.03;1.00;;;17.70;99.90;;;;;;5073098;28;20533;-63
2021/08/19 05:57:47;;;;;;;1.37;1.30;;;17.70;99.90;;;;;;5058094;28;20182;-66
2021/08/19 06:00:13;;;;;;;1.37;1.27;;;17.70;99.90;;;;;;5052995;28;20209;-63
2021/08/19 06:02:39;;;;;;;6.93;1.63;;;17.80;99.90;;;;;;5053118;28;20789;-64
2021/08/19 06:05:05;;;;;;;10.30;1.40;;;17.70;99.90;;;;;;5053133;28;20413;-63
2021/08/19 06:07:31;;;;;;;1.67;1.57;;;17.70;99.90;;;;;;5052703;28;20605;-64
2021/08/19 06:10:00;;;;;;;2.20;1.30;;;17.70;99.90;;;;;;5052942;28;20520;-65
2021/08/19 06:12:25;;;;;;;1.60;1.50;;;17.80;99.90;;;;;;5066567;28;20236;-65
2021/08/19 06:14:51;;;;;;;1.50;1.40;;;17.80;99.90;;;;;;5073176;28;20409;-65
2021/08/19 06:17:18;;;;;;;1.40;1.33;;;17.80;99.90;;;;;;5072756;28;20497;-62
2021/08/19 06:19:43;;;;;;;1.20;1.10;;;17.80;99.90;;;;;;5072611;28;20559;-66
2021/08/19 06:22:09;;;;;;;1.40;1.23;;;17.80;99.90;;;;;;5073048;28;20503;-61
2021/08/19 06:24:35;;;;;;;1.80;1.70;;;17.80;99.90;;;;;;5072920;28;20177;-65
2021/08/19 06:27:00;;;;;;;1.00;0.90;;;17.90;99.90;;;;;;5052898;28;20641;-62
2021/08/19 06:29:26;;;;;;;2.20;1.13;;;18.00;99.90;;;;;;5052608;28;20573;-66
2021/08/19 06:31:52;;;;;;;1.80;1.40;;;18.10;99.90;;;;;;5052721;28;20231;-62
2021/08/19 06:34:17;;;;;;;1.40;1.30;;;18.20;99.90;;;;;;5054263;28;20174;-64
2021/08/19 06:36:43;;;;;;;3.27;1.73;;;18.20;99.90;;;;;;5061798;28;20187;-63
2021/08/19 06:39:09;;;;;;;2.23;1.40;;;18.30;99.90;;;;;;5076594;28;20243;-63
2021/08/19 06:41:34;;;;;;;1.50;1.10;;;18.40;99.90;;;;;;5077127;28;20180;-64
2021/08/19 06:44:00;;;;;;;1.67;1.57;;;18.50;99.90;;;;;;5076370;28;20266;-64
2021/08/19 06:46:26;;;;;;;1.23;1.13;;;18.60;99.90;;;;;;5076615;28;20169;-66
2021/08/19 06:48:51;;;;;;;1.13;0.90;;;18.70;99.90;;;;;;5076186;28;20200;-64
2021/08/19 06:51:17;;;;;;;1.57;1.47;;;18.80;99.90;;;;;;5076021;28;20202;-63
2021/08/19 06:53:43;;;;;;;1.40;1.30;;;18.90;99.90;;;;;;5076234;28;20187;-62
2021/08/19 06:56:08;;;;;;;3.23;1.53;;;19.10;99.90;;;;;;5076311;28;20184;-63
2021/08/19 06:58:34;;;;;;;1.50;1.40;;;19.20;99.90;;;;;;5075753;28;22163;-62
2021/08/19 07:00:59;;;;;;;1.70;1.60;;;19.30;99.90;;;;;;5075229;28;20616;-66
2021/08/19 07:03:26;;;;;;;1.40;1.20;;;19.40;99.90;;;;;;5076277;28;20184;-63
2021/08/19 07:05:52;;;;;;;1.77;1.67;;;19.50;99.90;;;;;;5067197;28;20181;-66
2021/08/19 07:08:18;;;;;;;1.20;1.20;;;19.70;99.90;;;;;;5055684;28;20438;-64
2021/08/19 07:10:44;;;;;;;1.03;1.03;;;19.90;99.90;;;;;;5056257;28;20412;-65
2021/08/19 07:13:10;;;;;;;1.20;1.10;;;20.20;99.90;;;;;;5056063;28;20505;-63
2021/08/19 07:15:36;;;;;;;1.50;1.40;;;20.40;99.90;;;;;;5055881;28;20415;-65
2021/08/19 07:18:01;;;;;;;1.03;0.93;;;20.60;99.90;;;;;;5055485;28;20487;-67
2021/08/19 07:20:30;;;;;;;1.33;1.20;;;20.80;99.90;;;;;;5055794;28;20655;-64
2021/08/19 07:22:55;;;;;;;1.10;1.10;;;20.90;99.90;;;;;;5071599;28;20236;-66
2021/08/19 07:25:21;;;;;;;1.07;1.03;;;21.00;99.90;;;;;;5075840;28;20896;-63
2021/08/19 07:27:47;;;;;;;1.40;1.30;;;21.10;99.90;;;;;;5075142;28;20225;-67
2021/08/19 07:30:13;;;;;;;1.30;1.20;;;21.20;99.90;;;;;;5075674;28;20425;-64
2021/08/19 07:32:39;;;;;;;1.00;1.00;;;21.10;99.90;;;;;;5075515;28;20197;-65
2021/08/19 07:35:05;;;;;;;4.43;4.00;;;21.10;99.90;;;;;;5069151;28;20181;-66
2021/08/19 07:37:31;;;;;;;2.60;2.40;;;21.10;99.90;;;;;;5055269;28;20776;-67
2021/08/19 07:39:57;;;;;;;1.30;1.20;;;21.20;99.90;;;;;;5055332;28;20468;-65
2021/08/19 07:42:23;;;;;;;1.43;1.20;;;21.30;99.90;;;;;;5055536;28;20419;-63
2021/08/19 07:44:48;;;;;;;1.30;1.30;;;21.40;99.90;;;;;;5054310;28;20656;-64
2021/08/19 07:47:14;;;;;;;1.30;1.20;;;21.50;99.90;;;;;;5054351;28;20195;-64
2021/08/19 07:49:40;;;;;;;1.87;1.33;;;21.50;99.90;;;;;;5059661;28;20549;-64
2021/08/19 07:52:06;;;;;;;2.10;1.40;;;21.50;99.90;;;;;;5075225;28;20175;-65
2021/08/19 07:54:31;;;;;;;0.97;0.97;;;21.40;99.90;;;;;;5075324;28;20593;-66
2021/08/19 07:56:57;;;;;;;1.60;1.50;;;21.30;99.90;;;;;;5075057;28;20213;-63
2021/08/19 07:59:23;;;;;;;0.90;0.90;;;21.40;99.90;;;;;;5074272;28;20205;-67
2021/08/19 08:01:48;;;;;;;1.50;1.40;;;21.40;99.90;;;;;;5075248;28;20181;-63
2021/08/19 08:04:14;;;;;;;1.13;1.03;;;21.60;99.90;;;;;;5074040;28;20691;-66
2021/08/19 08:06:41;;;;;;;1.10;1.00;;;21.60;99.90;;;;;;5074579;28;20187;-65
2021/08/19 08:09:07;;;;;;;0.93;0.83;;;21.50;99.90;;;;;;5074867;28;20204;-66
2021/08/19 08:11:34;;;;;;;1.27;1.17;;;21.60;99.90;;;;;;5075092;28;20436;-64
2021/08/19 08:14:02;;;;;;;1.60;1.50;;;21.60;99.90;;;;;;5060820;28;20723;-66
2021/08/19 08:16:28;;;;;;;1.20;1.20;;;21.70;99.90;;;;;;5054791;28;20862;-65
2021/08/19 08:18:54;;;;;;;1.67;1.47;;;21.70;99.90;;;;;;5054407;28;20559;-64
2021/08/19 08:21:20;;;;;;;2.80;1.47;;;21.70;99.90;;;;;;5054922;28;20449;-64
2021/08/19 08:23:48;;;;;;;1.63;1.53;;;21.70;99.90;;;;;;5054634;28;20810;-62
2021/08/19 08:26:14;;;;;;;1.10;1.00;;;21.80;99.90;;;;;;5054440;28;20641;-67
2021/08/19 08:28:39;;;;;;;1.53;1.30;;;21.80;99.90;;;;;;5054373;28;20449;-63
2021/08/19 08:31:05;;;;;;;1.50;1.40;;;21.80;99.90;;;;;;5054348;28;20196;-66
2021/08/19 08:33:32;;;;;;;0.90;0.90;;;21.80;99.90;;;;;;5054509;28;20192;-64
2021/08/19 08:36:01;;;;;;;1.10;1.00;;;21.90;99.90;;;;;;5054645;28;20188;-67
2021/08/19 08:38:29;;;;;;;1.57;1.20;;;21.90;99.90;;;;;;5052644;28;20931;-64
2021/08/19 08:40:54;;;;;;;1.50;1.40;;;21.90;99.90;;;;;;5054613;28;20394;-66
2021/08/19 08:43:22;;;;;;;1.50;1.20;;;22.10;99.90;;;;;;5074252;28;20414;-65
2021/08/19 08:45:49;;;;;;;2.93;0.90;;;22.30;99.90;;;;;;5074297;28;20184;-66
2021/08/19 08:48:24;;;;;;;1.00;1.00;;;22.40;99.90;;;;;;5054944;28;20527;-66
2021/08/19 08:50:53;;;;;;;1.23;1.00;;;22.70;99.90;;;;;;5054361;28;20393;-64
2021/08/19 08:53:20;;;;;;;1.60;1.50;;;22.90;99.90;;;;;;5054292;28;20424;-61
2021/08/19 08:55:46;;;;;;;3.53;1.50;;;23.10;99.90;;;;;;5054270;28;20827;-64
2021/08/19 08:58:12;;;;;;;2.30;1.27;;;23.10;99.90;;;;;;5053436;28;20499;-63
2021/08/19 09:00:43;;;;;;;1.20;1.20;;;23.10;99.90;;;;;;5053850;28;21013;-62
2021/08/19 09:03:10;;;;;;;1.03;1.03;;;23.10;99.90;;;;;;5073395;28;20414;-64
2021/08/19 09:05:40;;;;;;;1.70;1.60;;;23.10;99.90;;;;;;5073959;28;20386;-66
2021/08/19 09:08:13;;;;;;;1.40;1.30;;;23.30;99.90;;;;;;5073330;28;20519;-62
2021/08/19 09:10:39;;;;;;;0.87;0.87;;;23.30;99.90;;;;;;5073840;28;20425;-62
2021/08/19 09:13:17;;;;;;;1.13;1.03;;;23.50;99.90;;;;;;5073970;28;20418;-63
2021/08/19 09:15:44;;;;;;;1.10;1.10;;;23.70;99.90;;;;;;5064567;28;20395;-63
2021/08/19 09:18:11;;;;;;;10.83;1.63;;;23.90;99.90;;;;;;5053076;28;20493;-62
2021/08/19 09:20:42;;;;;;;3.30;1.60;;;24.30;99.90;;;;;;5053619;28;20448;-62
2021/08/19 09:23:14;;;;;;;0.83;0.83;;;24.70;99.90;;;;;;5070849;28;20419;-61
2021/08/19 09:25:41;;;;;;;0.83;0.83;;;24.90;99.60;;;;;;5073669;28;20822;-63
2021/08/19 09:28:28;;;;;;;1.33;0.90;;;24.90;99.40;;;;;;5073327;28;20929;-64
2021/08/19 09:31:05;;;;;;;0.93;0.93;;;25.10;99.10;;;;;;5073084;28;20416;-66
2021/08/19 09:33:34;;;;;;;0.87;0.87;;;25.10;99.10;;;;;;5073368;28;20497;-63
2021/08/19 09:36:01;;;;;;;1.13;1.03;;;25.30;99.00;;;;;;5073384;28;20412;-64
2021/08/19 09:38:42;;;;;;;1.50;1.30;;;25.50;98.60;;;;;;5072819;28;20404;-66
2021/08/19 09:41:13;;;;;;;0.90;0.90;;;25.60;98.20;;;;;;5073759;28;20497;-61
2021/08/19 09:43:46;;;;;;;1.80;1.30;;;25.60;98.10;;;;;;5073249;28;20394;-64
2021/08/19 09:46:15;;;;;;;0.90;0.90;;;25.40;96.80;;;;;;5055809;28;20404;-65
2021/08/19 09:48:42;;;;;;;0.97;0.90;;;25.10;98.00;;;;;;5053000;28;20429;-66
2021/08/19 09:51:12;;;;;;;2.20;1.10;;;25.00;97.50;;;;;;5053369;28;20435;-65
2021/08/19 09:53:55;;;;;;;0.90;0.90;;;25.00;97.50;;;;;;5053349;28;20405;-64
2021/08/19 09:56:31;;;;;;;1.10;0.80;;;25.00;97.50;;;;;;5053351;28;20397;-65
2021/08/19 09:59:19;;;;;;;1.13;1.03;;;25.20;97.30;;;;;;5053329;28;20476;-64
2021/08/19 10:01:51;;;;;;;0.63;0.63;;;25.30;96.90;;;;;;5073214;28;20785;-65
2021/08/19 10:04:17;;;;;;;0.70;0.70;;;25.40;96.70;;;;;;5073263;28;20432;-64
2021/08/19 10:06:44;;;;;;;0.90;0.90;;;25.50;96.50;;;;;;5072881;28;20392;-62
2021/08/19 10:09:09;;;;;;;0.80;0.80;;;25.80;96.40;;;;;;5074243;28;20989;-64
2021/08/19 10:11:35;;;;;;;0.80;0.80;;;26.00;96.00;;;;;;5077323;28;20418;-67
2021/08/19 10:14:02;;;;;;;6.27;2.90;;;26.20;95.80;;;;;;5065878;28;20632;-65
2021/08/19 10:16:30;;;;;;;1.60;1.50;;;26.50;94.20;;;;;;5057404;28;20404;-65
2021/08/19 10:19:01;;;;;;;1.77;0.70;;;26.70;94.50;;;;;;5056692;28;20438;-62
2021/08/19 10:21:28;;;;;;;0.83;0.70;;;27.00;93.80;;;;;;5057212;28;20371;-65
2021/08/19 10:23:56;;;;;;;1.57;0.97;;;27.10;93.60;;;;;;5057093;28;20733;-65
2021/08/19 10:26:23;;;;;;;0.90;0.90;;;27.40;92.70;;;;;;5056856;28;20448;-63
2021/08/19 10:28:52;;;;;;;0.80;0.80;;;27.60;92.20;;;;;;5067829;28;20428;-65
2021/08/19 10:31:36;;;;;;;0.77;0.77;;;27.70;92.40;;;;;;5076769;28;20406;-63
2021/08/19 10:34:02;;;;;;;0.73;0.70;;;27.50;92.00;;;;;;5069955;28;20475;-62
2021/08/19 10:36:28;;;;;;;1.03;0.93;;;27.50;92.10;;;;;;5056701;28;20416;-65
2021/08/19 10:39:19;;;;;;;0.63;0.63;;;27.50;92.10;;;;;;5056484;28;20448;-64
2021/08/19 10:41:52;;;;;;;2.00;1.90;;;27.40;92.90;;;;;;5062016;28;20172;-64
2021/08/19 10:44:18;;;;;;;2.13;1.93;;;27.20;92.50;;;;;;5076822;28;20702;-64
2021/08/19 10:46:51;;;;;;;3.47;2.63;;;26.90;93.10;;;;;;5076253;28;20392;-63
2021/08/19 10:49:33;;;;;;;1.10;1.00;;;26.60;93.20;;;;;;5076603;28;20397;-66
2021/08/19 10:52:08;;;;;;;0.87;0.87;;;26.40;93.00;;;;;;5076615;28;20447;-63
2021/08/19 10:54:41;;;;;;;1.23;0.80;;;26.00;93.30;;;;;;5076592;28;20399;-65
2021/08/19 10:57:27;;;;;;;0.73;0.73;;;25.90;93.70;;;;;;5065020;28;20397;-66
2021/08/19 10:59:57;;;;;;;0.63;0.63;;;25.60;93.80;;;;;;5056328;28;20539;-64
2021/08/19 11:02:41;;;;;;;0.90;0.90;;;25.40;93.90;;;;;;5056263;28;20384;-66
2021/08/19 11:05:29;;;;;;;0.83;0.83;;;25.20;93.60;;;;;;5056236;28;20379;-64
2021/08/19 11:07:59;;;;;;;1.87;0.80;;;25.00;93.80;;;;;;5055546;28;20408;-65
2021/08/19 11:10:27;;;;;;;0.70;0.70;;;24.80;94.30;;;;;;5061822;28;20832;-64
2021/08/19 11:13:08;;;;;;;1.07;0.70;;;24.60;94.50;;;;;;5076073;28;20477;-65
2021/08/19 11:15:36;;;;;;;1.13;0.80;;;24.30;94.80;;;;;;5075852;28;20457;-66
2021/08/19 11:18:03;;;;;;;1.00;0.70;;;24.10;95.60;;;;;;5075483;28;20380;-65
2021/08/19 11:20:34;;;;;;;1.10;1.00;;;24.00;96.30;;;;;;5074409;28;20459;-65
2021/08/19 11:23:03;;;;;;;1.37;0.80;;;23.80;96.30;;;;;;5076123;28;20414;-63
2021/08/19 11:25:30;;;;;;;1.10;0.60;;;23.80;96.60;;;;;;5066968;28;20772;-62
2021/08/19 11:28:05;;;;;;;1.07;1.07;;;23.80;96.30;;;;;;5071100;28;20458;-66
2021/08/19 11:30:36;;;;;;;0.90;0.90;;;23.80;96.60;;;;;;5075975;28;20403;-65
2021/08/19 11:33:12;;;;;;;1.23;1.13;;;23.80;96.70;;;;;;5075952;28;20430;-65
2021/08/19 11:35:39;;;;;;;0.70;0.70;;;23.80;96.80;;;;;;5076128;28;20415;-63
2021/08/19 11:38:19;;;;;;;1.13;1.10;;;23.80;96.60;;;;;;5075097;28;20470;-62
2021/08/19 11:40:51;;;;;;;0.90;0.90;;;23.70;97.00;;;;;;5075036;28;20454;-65
2021/08/19 11:43:33;;;;;;;0.83;0.83;;;23.60;96.70;;;;;;5075765;28;20464;-63
2021/08/19 11:46:10;;;;;;;0.90;0.90;;;23.50;96.70;;;;;;5075633;28;20476;-67
2021/08/19 11:48:57;;;;;;;1.37;1.27;;;23.50;97.20;;;;;;5075200;28;20404;-63
2021/08/19 11:51:30;;;;;;;1.00;0.90;;;23.40;97.30;;;;;;5075039;28;20414;-65
2021/08/19 11:54:00;;;;;;;1.17;0.90;;;23.40;97.30;;;;;;5074897;28;20510;-64
2021/08/19 11:56:31;;;;;;;0.97;0.97;;;23.40;97.30;;;;;;5055266;28;20436;-65
2021/08/19 11:59:11;;;;;;;0.70;0.70;;;23.20;97.50;;;;;;5055063;28;20977;-66
2021/08/19 12:01:48;;;;;;;1.03;1.00;;;23.10;97.20;;;;;;5055286;28;20379;-62
2021/08/19 12:04:14;;;;;;;1.00;0.90;;;23.00;97.70;;;;;;5055232;28;20434;-67
2021/08/19 12:06:40;;;;;;;0.73;0.63;;;23.10;97.70;;;;;;5054878;28;20429;-62
2021/08/19 12:09:09;;;;;;;1.10;1.10;;;23.10;98.10;;;;;;5058659;28;20850;-65
2021/08/19 12:11:43;;;;;;;1.10;0.93;;;23.20;98.20;;;;;;5074876;28;20422;-65
2021/08/19 12:14:11;;;;;;;1.00;0.87;;;23.30;98.30;;;;;;5073621;28;20423;-63
2021/08/19 12:16:45;;;;;;;0.70;0.70;;;23.50;98.20;;;;;;5074449;28;20419;-64
2021/08/19 12:19:13;;;;;;;0.90;0.90;;;23.60;98.20;;;;;;5074641;28;20466;-63
2021/08/19 12:22:03;;;;;;;0.80;0.70;;;23.60;97.80;;;;;;5074937;28;20404;-61
2021/08/19 12:24:33;;;;;;;1.10;1.00;;;23.60;96.90;;;;;;5058716;28;20399;-66
2021/08/19 12:27:14;;;;;;;0.73;0.73;;;23.50;96.50;;;;;;5054152;28;20386;-62
2021/08/19 12:29:49;;;;;;;1.73;1.23;;;23.60;96.90;;;;;;5054664;28;20431;-63
2021/08/19 12:32:29;;;;;;;0.80;0.80;;;23.80;97.70;;;;;;5053911;28;20937;-65
2021/08/19 12:35:12;;;;;;;0.87;0.87;;;23.90;96.70;;;;;;5054493;28;20411;-64
2021/08/19 12:37:53;;;;;;;0.70;0.70;;;23.90;96.90;;;;;;5054139;28;20379;-66
2021/08/19 12:40:19;;;;;;;1.30;1.20;;;24.00;96.40;;;;;;5054273;28;21022;-61
2021/08/19 12:42:46;;;;;;;2.47;1.40;;;24.20;97.10;;;;;;5054551;28;20495;-64
2021/08/19 12:45:22;;;;;;;0.90;0.90;;;24.60;97.20;;;;;;5054148;28;20820;-63
2021/08/19 12:47:59;;;;;;;1.10;1.00;;;24.80;97.10;;;;;;5053898;28;20408;-65
2021/08/19 12:50:25;;;;;;;0.80;0.80;;;24.90;96.20;;;;;;5054525;28;20755;-64
2021/08/19 12:52:51;;;;;;;1.50;1.40;;;25.00;95.50;;;;;;5069012;28;20419;-65